createdAt,value
2023-04-29T00:01:28.626Z,11.2
2023-04-29T00:07:39.286Z,11.2
2023-04-29T00:12:35.924Z,11.2
2023-04-29T00:17:32.429Z,11.1
2023-04-29T00:22:28.905Z,11.2
2023-04-29T00:27:25.421Z,11.2
2023-04-29T00:33:36.186Z,11.2
2023-04-29T00:38:32.638Z,11.1
2023-04-29T00:43:29.159Z,11.2
2023-04-29T00:49:39.828Z,11.3
2023-04-29T00:54:36.427Z,11.2
2023-04-29T01:04:29.570Z,11
2023-04-29T01:09:25.958Z,11
2023-04-29T01:15:36.703Z,10.9
2023-04-29T01:20:33.208Z,11
2023-04-29T01:25:29.779Z,10.9
2023-04-29T01:36:36.913Z,10.8
2023-04-29T01:41:33.448Z,10.7
2023-04-29T01:46:30.033Z,10.6
2023-04-29T01:51:26.519Z,10.6
2023-04-29T01:57:37.245Z,10.6
2023-04-29T02:02:33.809Z,10.6
2023-04-29T02:07:30.221Z,10.4
2023-04-29T02:12:26.763Z,10.4
2023-04-29T02:18:37.454Z,10.3
2023-04-29T02:23:34.043Z,10.4
2023-04-29T02:28:30.489Z,10.3
2023-04-29T02:33:27.031Z,10.3
2023-04-29T02:39:37.694Z,10.2
2023-04-29T02:44:34.212Z,10.3
2023-04-29T02:49:30.731Z,10.2
2023-04-29T02:54:27.285Z,10.1
2023-04-29T03:00:37.979Z,10.1
2023-04-29T03:05:34.484Z,10
2023-04-29T03:10:31.025Z,10
2023-04-29T03:15:27.643Z,9.9
2023-04-29T03:21:38.233Z,10
2023-04-29T03:26:34.882Z,9.9
2023-04-29T03:31:31.338Z,9.9
2023-04-29T03:36:27.834Z,9.8
2023-04-29T03:42:38.489Z,9.7
2023-04-29T03:47:35.131Z,9.6
2023-04-29T03:52:31.521Z,9.6
2023-04-29T03:57:28.079Z,9.6
2023-04-29T04:03:39.097Z,9.5
2023-04-29T04:08:35.272Z,9.6
2023-04-29T04:13:31.807Z,9.5
2023-04-29T04:18:28.339Z,9.4
2023-04-29T04:24:39.131Z,9.3
2023-04-29T04:29:35.598Z,9.2
2023-04-29T04:34:32.067Z,9
2023-04-29T04:39:28.604Z,9.1
2023-04-29T04:45:39.488Z,8.9
2023-04-29T04:50:35.895Z,8.8
2023-04-29T04:55:32.322Z,8.6
2023-04-29T05:00:28.853Z,8.7
2023-04-29T05:06:39.568Z,8.6
2023-04-29T05:11:36.097Z,8.6
2023-04-29T05:16:32.667Z,8.5
2023-04-29T05:21:29.153Z,8.6
2023-04-29T05:26:25.752Z,8.6
2023-04-29T05:32:36.530Z,8.7
2023-04-29T05:37:32.882Z,8.7
2023-04-29T05:42:29.393Z,8.7
2023-04-29T05:47:25.955Z,8.6
2023-04-29T05:53:36.668Z,8.6
2023-04-29T05:58:33.135Z,8.7
2023-04-29T06:03:29.795Z,8.7
2023-04-29T06:14:36.929Z,8.8
2023-04-29T06:19:33.483Z,8.8
2023-04-29T06:24:29.910Z,8.8
2023-04-29T06:29:26.444Z,8.9
2023-04-29T06:35:37.160Z,8.9
2023-04-29T06:40:33.653Z,8.8
2023-04-29T06:45:30.170Z,8.8
2023-04-29T06:50:26.750Z,8.8
2023-04-29T06:56:37.478Z,8.8
2023-04-29T07:00:27.960Z,8.8
2023-04-29T07:06:38.627Z,8.8
2023-04-29T07:11:35.259Z,8.9
2023-04-29T07:16:31.859Z,8.9
2023-04-29T07:21:28.233Z,8.8
2023-04-29T07:27:39.039Z,8.9
2023-04-29T07:32:35.473Z,9
2023-04-29T07:37:31.965Z,9
2023-04-29T07:42:28.502Z,9.2
2023-04-29T07:48:39.369Z,9.3
2023-04-29T07:53:35.728Z,9.4
2023-04-29T07:58:32.213Z,9.3
2023-04-29T08:03:28.843Z,9.2
2023-04-29T08:09:39.594Z,9.2
2023-04-29T08:14:35.972Z,9.2
2023-04-29T08:19:32.527Z,9.1
2023-04-29T08:24:29.008Z,9.5
2023-04-29T08:30:39.815Z,10
2023-04-29T08:35:36.347Z,9.9
2023-04-29T08:40:32.820Z,9.9
2023-04-29T08:45:29.302Z,10
2023-04-29T08:50:25.818Z,10.3
2023-04-29T08:56:36.576Z,10.4
2023-04-29T09:01:33.180Z,10.4
2023-04-29T09:06:29.587Z,10.4
2023-04-29T09:11:26.119Z,10.5
2023-04-29T09:17:36.783Z,10.7
2023-04-29T09:22:33.354Z,10.5
2023-04-29T09:27:29.937Z,10.9
2023-04-29T09:32:26.400Z,11.5
2023-04-29T09:38:36.999Z,12.1
2023-04-29T09:43:33.599Z,12.3
2023-04-29T09:48:30.162Z,12.6
2023-04-29T09:53:26.639Z,12
2023-04-29T09:59:37.799Z,11.5
2023-04-29T10:04:33.838Z,10.6
2023-04-29T10:09:30.304Z,10.3
2023-04-29T10:14:26.965Z,10.1
2023-04-29T10:20:37.538Z,10.1
2023-04-29T10:25:34.216Z,10.3
2023-04-29T10:30:30.587Z,10.4
2023-04-29T10:41:37.801Z,10.3
2023-04-29T10:46:34.473Z,10.4
2023-04-29T10:51:30.892Z,10.6
2023-04-29T10:56:27.391Z,10.4
2023-04-29T11:02:38.129Z,10.4
2023-04-29T11:07:34.679Z,10.3
2023-04-29T11:12:31.136Z,10.3
2023-04-29T11:17:28.404Z,10.5
2023-04-29T11:23:38.325Z,11
2023-04-29T11:28:34.932Z,11
2023-04-29T11:33:31.351Z,10.6
2023-04-29T11:38:27.931Z,10.5
2023-04-29T11:44:38.595Z,10.4
2023-04-29T11:49:35.123Z,10.3
2023-04-29T11:54:31.642Z,10.3
2023-04-29T11:59:28.208Z,10.3
2023-04-29T12:05:38.917Z,10.4
2023-04-29T12:10:35.518Z,10.3
2023-04-29T12:15:31.892Z,10.1
2023-04-29T12:20:28.459Z,10.2
2023-04-29T12:25:25.083Z,10.4
2023-04-29T12:31:35.730Z,10.5
2023-04-29T12:36:32.181Z,10.3
2023-04-29T12:41:28.700Z,10.4
2023-04-29T12:47:39.606Z,10.4
2023-04-29T12:52:36.917Z,10.4
2023-04-29T12:57:32.560Z,10.5
2023-04-29T13:02:29.197Z,10.8
2023-04-29T13:07:25.514Z,10.8
2023-04-29T13:13:36.160Z,10.7
2023-04-29T13:18:34.783Z,10.9
2023-04-29T13:23:29.317Z,11.2
2023-04-29T13:28:25.749Z,11.4
2023-04-29T13:34:36.432Z,11.9
2023-04-29T13:44:35.857Z,12.8
2023-04-29T13:49:39.524Z,13.2
2023-04-29T14:01:05.323Z,12.7
2023-04-29T14:05:29.973Z,12.4
2023-04-29T14:10:26.329Z,13.1
2023-04-29T14:16:36.953Z,13
2023-04-29T14:21:33.878Z,13
2023-04-29T14:26:30.032Z,13
2023-04-29T14:31:26.596Z,12.7
2023-04-29T14:37:37.264Z,12.8
2023-04-29T14:40:05.543Z,12.9
2023-04-29T14:42:33.907Z,13
2023-04-29T14:47:30.330Z,13.2
2023-04-29T14:52:26.830Z,13.1
2023-04-29T14:58:37.522Z,12.9
2023-04-29T15:03:34.126Z,12.5
2023-04-29T15:08:30.558Z,12
2023-04-29T15:13:27.456Z,11.9
2023-04-29T15:18:31.972Z,11.8
2023-04-29T15:23:28.382Z,11.7
2023-04-29T15:29:39.080Z,11.6
2023-04-29T15:34:35.574Z,11.6
2023-04-29T15:39:32.110Z,11.6
2023-04-29T15:44:28.625Z,11.7
2023-04-29T15:49:25.209Z,11.8
2023-04-29T15:55:35.900Z,11.9
2023-04-29T16:00:32.407Z,11.9
2023-04-29T16:05:28.917Z,12.1
2023-04-29T16:10:25.536Z,12.3
2023-04-29T16:16:36.203Z,12.4
2023-04-29T16:21:32.651Z,12.2
2023-04-29T16:26:29.139Z,12.5
2023-04-29T16:31:25.801Z,12.7
2023-04-29T16:37:36.468Z,12.8
2023-04-29T16:42:33.084Z,12.8
2023-04-29T16:47:29.620Z,13.2
2023-04-29T16:52:25.997Z,13.3
2023-04-29T16:58:36.695Z,13.2
2023-04-29T17:03:33.211Z,13.3
2023-04-29T17:08:29.713Z,12.9
2023-04-29T17:19:36.866Z,12.5
2023-04-29T17:24:33.495Z,12.4
2023-04-29T17:29:29.935Z,12.5
2023-04-29T17:34:26.534Z,12.6
2023-04-29T17:40:37.167Z,12.6
2023-04-29T17:45:33.841Z,12.8
2023-04-29T17:50:30.213Z,12.6
2023-04-29T17:55:26.801Z,12.7
2023-04-29T18:01:41.909Z,12.6
2023-04-29T18:06:34.138Z,12.4
2023-04-29T18:11:30.479Z,12.4
2023-04-29T18:16:27.062Z,12.6
2023-04-29T18:22:37.661Z,12.4
2023-04-29T18:27:34.290Z,12.4
2023-04-29T18:32:30.715Z,12.3
2023-04-29T18:37:27.282Z,11.8
2023-04-29T18:43:37.952Z,11.4
2023-04-29T18:48:34.499Z,11.6
2023-04-29T18:53:30.965Z,11.5
2023-04-29T18:58:27.512Z,11.3
2023-04-29T19:04:38.260Z,11.2
2023-04-29T19:09:34.910Z,11
2023-04-29T19:14:31.289Z,10.9
2023-04-29T19:19:27.844Z,10.9
2023-04-29T19:25:38.470Z,11.1
2023-04-29T19:30:35.030Z,11.1
2023-04-29T19:35:31.483Z,11.2
2023-04-29T19:40:28.091Z,11.1
2023-04-29T19:46:38.845Z,11
2023-04-29T19:51:35.353Z,11
2023-04-29T19:56:31.787Z,10.9
2023-04-29T20:01:28.711Z,10.8
2023-04-29T20:06:25.060Z,10.8
2023-04-29T20:12:35.588Z,10.9
2023-04-29T20:17:32.048Z,11.1
2023-04-29T20:22:28.553Z,11.1
2023-04-29T20:28:39.396Z,11
2023-04-29T20:33:35.938Z,11
2023-04-29T20:38:32.351Z,10.9
2023-04-29T20:43:28.898Z,11
2023-04-29T20:48:25.675Z,11.1
2023-04-29T20:54:36.152Z,11
2023-04-29T20:59:32.624Z,10.8
2023-04-29T21:04:29.161Z,11
2023-04-29T21:09:25.676Z,11.1
2023-04-29T21:15:36.452Z,11
2023-04-29T21:20:32.958Z,10.9
2023-04-29T21:25:29.493Z,11
2023-04-29T21:30:25.950Z,11.1
2023-04-29T21:36:36.584Z,11.2
2023-04-29T21:41:33.091Z,11
2023-04-29T21:46:29.650Z,10.8
2023-04-29T22:02:33.461Z,11
2023-04-29T22:07:29.948Z,10.8
2023-04-29T22:12:26.505Z,10.8
2023-04-29T22:18:37.156Z,10.7
2023-04-29T22:23:33.776Z,10.7
2023-04-29T22:28:30.198Z,10.5
2023-04-29T22:33:26.757Z,10.4
2023-04-29T22:39:37.374Z,10.7
2023-04-29T22:44:33.999Z,10.2
2023-04-29T22:49:30.415Z,10.2
2023-04-29T22:54:27.107Z,10
2023-04-29T23:00:37.639Z,9.9
2023-04-29T23:05:34.189Z,9.9
2023-04-29T23:10:30.667Z,9.9
2023-04-29T23:21:37.932Z,9.7
2023-04-29T23:26:34.569Z,9.7
2023-04-29T23:31:31.084Z,9.6
2023-04-29T23:36:27.554Z,9.6
2023-04-29T23:42:38.204Z,9.5
2023-04-29T23:47:34.826Z,9.3
2023-04-29T23:52:31.269Z,9.1
2023-04-29T23:57:27.790Z,9.1
